Home PIREPS Pireps

Flight SLR2427

  • Submitted By: Vincent Fourni
  • Departure Airport: Bruxelles National (EBBR)
  • Arrival Airport: Malaga airport (LEMG)
  • Aircraft: B737-800 (OO-SLR)
  • Flight Time: 02.31
  • Date Submitted: 14/04/2017
  • Status: Accepted
Flight Details
Gross Revenue:
(132 load / € 0.00 per unit
€ 0.00
Fuel Cost:
(7056 fuel used @ 5.1 / unit)
€ 35,985.60

Additional Log Information:

View Log

Aircraft Used in flight is Boeing 737-800NGX JetairFly Airlines (TUI) Wingl
10:07 Brakes are On
10:08 Brakes are Released
10:12 You Took off @ 186 Knots and Flaps at Position 3
Departure Weather
EBBR 140750Z 24005KT 9999 BKN048 09/04 Q1017 NOSIGrn
10:12 Landing Gear Up @ 191 Knots and 370 Feet
10:13 Below FL100 you need to turn on the landing lights
12:24 Below 10000 feet you are not allowed to go over 250 knots
12:35 Landing Gear Down @ 198 Knots and 1740 Feet
12:37 You Landed @ 130 Knots and with -1350 Vertical Speed
Arrival Weather
LEMG 141000Z 27011KT 240V300 CAVOK 24/14 Q1018 NOSIGrn
12:37 Your Landing was very hard
12:37 Paused
12:40 Unpaused
12:40 Brakes are On
12:42 Brussels Bel-Track1.0.1.2

Route Map

Corporate About Us Our Team Vacancies Information Fleet Route Network Rules and Regulations Operations Flight Schedules Event Center Tours Partners IVAO Vatsim Acars dev FSCB

fb Users Online No pilots online!
0 Pilot(s) and 111 Guest(s) Online
CMS by phpVMS - Design by Crazycreatives.com - Copyright © 2020 - Brussels Airlines Virtual